DECNA EDHL-EDDH
Flight info
| Callsign | DECNA |
|---|---|
| Flight time | 0h 40m |
| Altitude | 4000 |
| Route | DCT |
| Aircraft | C172/L-SDE3FGHIRWY/S |
Departure
| Time | 2026-04-24 21:04 |
|---|---|
| Airport | Lübeck Blankensee Airport (EDHL) |
Arrival
| Time | 2026-04-24 21:44 |
|---|---|
| Airport | Hamburg Helmut Schmidt Airport (EDDH) |
| Time | Latitude | Longitude | Altitude | Speed | Heading |
|---|---|---|---|---|---|
| 2026-04-24 20:53 | 53.80575 | 10.70467 | 53 ft | 0 kts | 124° |
| 2026-04-24 21:00 | 53.80570 | 10.70475 | 53 ft | 5 kts | 156° |
| 2026-04-24 21:00 | 53.80597 | 10.70432 | 53 ft | 10 kts | 303° |
| 2026-04-24 21:00 | 53.80565 | 10.70352 | 53 ft | 12 kts | 202° |
| 2026-04-24 21:00 | 53.80472 | 10.70417 | 53 ft | 14 kts | 149° |
| 2026-04-24 21:01 | 53.80464 | 10.70522 | 53 ft | 10 kts | 70° |
| 2026-04-24 21:01 | 53.80501 | 10.70718 | 54 ft | 25 kts | 71° |
| 2026-04-24 21:01 | 53.80572 | 10.71035 | 56 ft | 25 kts | 76° |
| 2026-04-24 21:01 | 53.80604 | 10.71250 | 58 ft | 19 kts | 76° |
| 2026-04-24 21:02 | 53.80647 | 10.71501 | 57 ft | 22 kts | 75° |
| 2026-04-24 21:02 | 53.80655 | 10.71654 | 56 ft | 12 kts | 117° |
| 2026-04-24 21:02 | 53.80610 | 10.71834 | 57 ft | 20 kts | 112° |
| 2026-04-24 21:02 | 53.80561 | 10.71998 | 54 ft | 14 kts | 157° |
| 2026-04-24 21:03 | 53.80523 | 10.71897 | 55 ft | 16 kts | 246° |
| 2026-04-24 21:03 | 53.80442 | 10.71499 | 61 ft | 56 kts | 253° |
| 2026-04-24 21:03 | 53.80308 | 10.70802 | 219 ft | 64 kts | 257° |
| 2026-04-24 21:03 | 53.80195 | 10.70051 | 407 ft | 67 kts | 262° |
| 2026-04-24 21:04 | 53.80069 | 10.69244 | 569 ft | 72 kts | 258° |
| 2026-04-24 21:04 | 53.79767 | 10.68665 | 857 ft | 77 kts | 195° |
| 2026-04-24 21:04 | 53.79187 | 10.69012 | 940 ft | 98 kts | 167° |
| 2026-04-24 21:04 | 53.78442 | 10.69285 | 920 ft | 117 kts | 184° |
| 2026-04-24 21:05 | 53.77636 | 10.69334 | 1021 ft | 112 kts | 190° |
| 2026-04-24 21:05 | 53.76876 | 10.69277 | 1141 ft | 107 kts | 198° |
| 2026-04-24 21:05 | 53.76104 | 10.69036 | 1200 ft | 107 kts | 205° |
| 2026-04-24 21:05 | 53.75387 | 10.68762 | 1256 ft | 111 kts | 201° |
| 2026-04-24 21:06 | 53.74632 | 10.68482 | 1316 ft | 110 kts | 207° |
| 2026-04-24 21:06 | 53.73905 | 10.68104 | 1390 ft | 109 kts | 212° |
| 2026-04-24 21:06 | 53.73196 | 10.67635 | 1440 ft | 109 kts | 212° |
| 2026-04-24 21:06 | 53.72474 | 10.67226 | 1522 ft | 110 kts | 211° |
| 2026-04-24 21:07 | 53.71749 | 10.66818 | 1586 ft | 110 kts | 212° |
| 2026-04-24 21:07 | 53.71012 | 10.66375 | 1582 ft | 114 kts | 211° |
| 2026-04-24 21:07 | 53.70269 | 10.65944 | 1618 ft | 115 kts | 210° |
| 2026-04-24 21:07 | 53.69537 | 10.65545 | 1590 ft | 112 kts | 211° |
| 2026-04-24 21:08 | 53.68838 | 10.65020 | 1589 ft | 106 kts | 222° |
| 2026-04-24 21:08 | 53.68258 | 10.64326 | 1548 ft | 99 kts | 233° |
| 2026-04-24 21:08 | 53.67748 | 10.63515 | 1566 ft | 99 kts | 240° |
| 2026-04-24 21:08 | 53.67349 | 10.62636 | 1616 ft | 91 kts | 252° |
| 2026-04-24 21:09 | 53.66991 | 10.61744 | 1625 ft | 94 kts | 246° |
| 2026-04-24 21:09 | 53.66609 | 10.60842 | 1644 ft | 95 kts | 246° |
| 2026-04-24 21:09 | 53.66348 | 10.60231 | 1663 ft | 96 kts | 246° |
| 2026-04-24 21:09 | 53.65840 | 10.59071 | 1808 ft | 89 kts | 246° |
| 2026-04-24 21:10 | 53.65588 | 10.58521 | 1891 ft | 86 kts | 246° |
| 2026-04-24 21:10 | 53.65232 | 10.57752 | 2006 ft | 83 kts | 246° |
| 2026-04-24 21:10 | 53.64971 | 10.56927 | 2134 ft | 81 kts | 258° |
| 2026-04-24 21:10 | 53.64719 | 10.56055 | 2266 ft | 84 kts | 259° |
| 2026-04-24 21:11 | 53.64451 | 10.55155 | 2391 ft | 87 kts | 258° |
| 2026-04-24 21:11 | 53.64167 | 10.54212 | 2421 ft | 96 kts | 258° |
| 2026-04-24 21:11 | 53.63867 | 10.53164 | 2414 ft | 103 kts | 258° |
| 2026-04-24 21:11 | 53.63553 | 10.52011 | 2355 ft | 110 kts | 258° |
| 2026-04-24 21:12 | 53.63243 | 10.50838 | 2283 ft | 113 kts | 258° |
| 2026-04-24 21:12 | 53.62933 | 10.49642 | 2274 ft | 109 kts | 258° |
| 2026-04-24 21:12 | 53.62639 | 10.48476 | 2271 ft | 107 kts | 258° |
| 2026-04-24 21:12 | 53.62347 | 10.47328 | 2270 ft | 107 kts | 258° |
| 2026-04-24 21:13 | 53.62056 | 10.46182 | 2266 ft | 106 kts | 258° |
| 2026-04-24 21:13 | 53.61811 | 10.45028 | 2266 ft | 102 kts | 268° |
| 2026-04-24 21:13 | 53.61633 | 10.43965 | 2264 ft | 87 kts | 264° |
| 2026-04-24 21:13 | 53.61433 | 10.43039 | 2221 ft | 77 kts | 264° |
| 2026-04-24 21:14 | 53.61225 | 10.42124 | 2302 ft | 92 kts | 264° |
| 2026-04-24 21:14 | 53.61018 | 10.40998 | 2282 ft | 106 kts | 265° |
| 2026-04-24 21:14 | 53.60815 | 10.39758 | 2280 ft | 110 kts | 262° |
| 2026-04-24 21:14 | 53.60583 | 10.38712 | 2266 ft | 89 kts | 261° |
| 2026-04-24 21:15 | 53.60359 | 10.37699 | 2278 ft | 97 kts | 262° |
| 2026-04-24 21:15 | 53.60136 | 10.36589 | 2283 ft | 102 kts | 263° |
| 2026-04-24 21:15 | 53.59904 | 10.35435 | 2281 ft | 105 kts | 262° |
| 2026-04-24 21:15 | 53.59671 | 10.34271 | 2288 ft | 105 kts | 262° |
| 2026-04-24 21:16 | 53.59439 | 10.33096 | 2288 ft | 106 kts | 263° |
| 2026-04-24 21:16 | 53.59203 | 10.31910 | 2288 ft | 106 kts | 263° |
| 2026-04-24 21:16 | 53.58960 | 10.30746 | 2290 ft | 102 kts | 262° |
| 2026-04-24 21:16 | 53.58740 | 10.29733 | 2213 ft | 79 kts | 262° |
| 2026-04-24 21:17 | 53.58555 | 10.28961 | 2077 ft | 65 kts | 264° |
| 2026-04-24 21:17 | 53.58380 | 10.28297 | 1907 ft | 59 kts | 259° |
| 2026-04-24 21:17 | 53.58113 | 10.27751 | 1701 ft | 64 kts | 239° |
| 2026-04-24 21:17 | 53.57673 | 10.27449 | 1491 ft | 78 kts | 199° |
| 2026-04-24 21:18 | 53.57154 | 10.27884 | 1299 ft | 91 kts | 121° |
| 2026-04-24 21:18 | 53.57102 | 10.28889 | 1292 ft | 90 kts | 64° |
| 2026-04-24 21:18 | 53.57328 | 10.29914 | 1473 ft | 93 kts | 38° |
| 2026-04-24 21:18 | 53.57778 | 10.30252 | 1588 ft | 56 kts | 329° |
| 2026-04-24 21:19 | 53.57918 | 10.29663 | 1558 ft | 68 kts | 278° |
| 2026-04-24 21:19 | 53.57834 | 10.28814 | 1544 ft | 76 kts | 266° |
| 2026-04-24 21:19 | 53.57661 | 10.27951 | 1532 ft | 80 kts | 261° |
| 2026-04-24 21:19 | 53.57448 | 10.27105 | 1580 ft | 75 kts | 259° |
| 2026-04-24 21:20 | 53.56986 | 10.25499 | 1545 ft | 79 kts | 259° |
| 2026-04-24 21:20 | 53.56777 | 10.24643 | 1522 ft | 78 kts | 265° |
| 2026-04-24 21:20 | 53.56642 | 10.23753 | 1524 ft | 79 kts | 264° |
| 2026-04-24 21:21 | 53.56487 | 10.22864 | 1557 ft | 80 kts | 267° |
| 2026-04-24 21:21 | 53.56334 | 10.21940 | 1530 ft | 85 kts | 267° |
| 2026-04-24 21:21 | 53.56223 | 10.20948 | 1496 ft | 83 kts | 272° |
| 2026-04-24 21:21 | 53.56167 | 10.19961 | 1513 ft | 87 kts | 274° |
| 2026-04-24 21:22 | 53.56161 | 10.18906 | 1472 ft | 92 kts | 279° |
| 2026-04-24 21:22 | 53.56181 | 10.17837 | 1488 ft | 90 kts | 279° |
| 2026-04-24 21:22 | 53.56193 | 10.16808 | 1566 ft | 88 kts | 276° |
| 2026-04-24 21:22 | 53.56190 | 10.15772 | 1598 ft | 88 kts | 282° |
| 2026-04-24 21:23 | 53.56369 | 10.14824 | 1645 ft | 85 kts | 304° |
| 2026-04-24 21:23 | 53.56781 | 10.14142 | 1739 ft | 82 kts | 324° |
| 2026-04-24 21:23 | 53.57298 | 10.13654 | 1727 ft | 86 kts | 322° |
| 2026-04-24 21:23 | 53.57688 | 10.12917 | 1709 ft | 82 kts | 298° |
| 2026-04-24 21:24 | 53.57895 | 10.12080 | 1691 ft | 76 kts | 295° |
| 2026-04-24 21:24 | 53.58102 | 10.11285 | 1572 ft | 77 kts | 301° |
| 2026-04-24 21:24 | 53.58365 | 10.10428 | 1528 ft | 87 kts | 291° |
| 2026-04-24 21:24 | 53.58569 | 10.09468 | 1546 ft | 87 kts | 299° |
| 2026-04-24 21:25 | 53.58956 | 10.08682 | 1567 ft | 90 kts | 315° |
| 2026-04-24 21:25 | 53.59449 | 10.08039 | 1628 ft | 88 kts | 323° |
| 2026-04-24 21:25 | 53.59994 | 10.07535 | 1644 ft | 91 kts | 332° |
| 2026-04-24 21:25 | 53.60640 | 10.07416 | 1533 ft | 93 kts | 353° |
| 2026-04-24 21:26 | 53.61280 | 10.07485 | 1368 ft | 91 kts | 350° |
| 2026-04-24 21:26 | 53.61913 | 10.07444 | 1268 ft | 85 kts | 340° |
| 2026-04-24 21:26 | 53.62472 | 10.07148 | 1221 ft | 86 kts | 329° |
| 2026-04-24 21:26 | 53.63018 | 10.06678 | 1243 ft | 91 kts | 327° |
| 2026-04-24 21:27 | 53.63628 | 10.06119 | 1009 ft | 99 kts | 324° |
| 2026-04-24 21:27 | 53.64135 | 10.05422 | 834 ft | 90 kts | 309° |
| 2026-04-24 21:27 | 53.64388 | 10.04550 | 748 ft | 81 kts | 283° |
| 2026-04-24 21:27 | 53.64479 | 10.03623 | 656 ft | 80 kts | 282° |
| 2026-04-24 21:28 | 53.64432 | 10.02699 | 573 ft | 84 kts | 262° |
| 2026-04-24 21:28 | 53.64237 | 10.01735 | 380 ft | 93 kts | 252° |
| 2026-04-24 21:28 | 53.63928 | 10.00776 | 273 ft | 94 kts | 247° |
| 2026-04-24 21:28 | 53.63504 | 9.99778 | 137 ft | 112 kts | 237° |
| 2026-04-24 21:29 | 53.63024 | 9.98805 | 137 ft | 102 kts | 236° |
| 2026-04-24 21:29 | 53.62574 | 9.97951 | 268 ft | 93 kts | 235° |
| 2026-04-24 21:29 | 53.62107 | 9.97142 | 513 ft | 94 kts | 232° |
| 2026-04-24 21:29 | 53.61601 | 9.96407 | 758 ft | 99 kts | 228° |
| 2026-04-24 21:30 | 53.60967 | 9.95867 | 946 ft | 108 kts | 206° |
| 2026-04-24 21:30 | 53.60202 | 9.95784 | 1152 ft | 115 kts | 184° |
| 2026-04-24 21:30 | 53.59359 | 9.95935 | 1205 ft | 128 kts | 183° |
| 2026-04-24 21:30 | 53.58462 | 9.95972 | 1262 ft | 128 kts | 191° |
| 2026-04-24 21:31 | 53.57579 | 9.95961 | 1217 ft | 124 kts | 189° |
| 2026-04-24 21:31 | 53.56735 | 9.95912 | 1205 ft | 122 kts | 185° |
| 2026-04-24 21:31 | 53.55885 | 9.96324 | 1140 ft | 128 kts | 162° |
| 2026-04-24 21:31 | 53.55074 | 9.96908 | 1093 ft | 129 kts | 169° |
| 2026-04-24 21:32 | 53.54246 | 9.97559 | 1044 ft | 132 kts | 149° |
| 2026-04-24 21:32 | 53.53479 | 9.98161 | 1176 ft | 109 kts | 191° |
| 2026-04-24 21:32 | 53.52826 | 9.97663 | 1129 ft | 101 kts | 246° |
| 2026-04-24 21:32 | 53.52826 | 9.96621 | 1134 ft | 92 kts | 299° |
| 2026-04-24 21:33 | 53.53402 | 9.96157 | 1046 ft | 104 kts | 354° |
| 2026-04-24 21:33 | 53.53866 | 9.96279 | 1081 ft | 106 kts | 16° |
| 2026-04-24 21:33 | 53.54401 | 9.97684 | 1142 ft | 119 kts | 79° |
| 2026-04-24 21:33 | 53.54292 | 9.99145 | 1017 ft | 131 kts | 110° |
| 2026-04-24 21:34 | 53.53847 | 10.00462 | 1035 ft | 127 kts | 123° |
| 2026-04-24 21:34 | 53.53463 | 10.01776 | 1058 ft | 124 kts | 99° |
| 2026-04-24 21:34 | 53.53603 | 10.03145 | 1031 ft | 118 kts | 56° |
| 2026-04-24 21:34 | 53.54141 | 10.04068 | 1100 ft | 105 kts | 21° |
| 2026-04-24 21:35 | 53.54822 | 10.04309 | 1050 ft | 100 kts | 345° |
| 2026-04-24 21:35 | 53.55409 | 10.03844 | 1135 ft | 88 kts | 324° |
| 2026-04-24 21:35 | 53.55896 | 10.03217 | 1109 ft | 92 kts | 319° |
| 2026-04-24 21:35 | 53.56449 | 10.02601 | 1051 ft | 97 kts | 328° |
| 2026-04-24 21:36 | 53.57074 | 10.02128 | 1026 ft | 99 kts | 335° |
| 2026-04-24 21:36 | 53.57746 | 10.01782 | 975 ft | 103 kts | 338° |
| 2026-04-24 21:36 | 53.58435 | 10.01489 | 939 ft | 102 kts | 341° |
| 2026-04-24 21:36 | 53.59110 | 10.01210 | 939 ft | 100 kts | 341° |
| 2026-04-24 21:37 | 53.59777 | 10.00887 | 900 ft | 96 kts | 336° |
| 2026-04-24 21:37 | 53.60419 | 10.00616 | 861 ft | 96 kts | 356° |
| 2026-04-24 21:37 | 53.60993 | 10.01223 | 847 ft | 107 kts | 50° |
| 2026-04-24 21:37 | 53.61371 | 10.02348 | 766 ft | 112 kts | 55° |
| 2026-04-24 21:38 | 53.61772 | 10.03506 | 733 ft | 115 kts | 53° |
| 2026-04-24 21:38 | 53.62174 | 10.04675 | 767 ft | 119 kts | 55° |
| 2026-04-24 21:38 | 53.62596 | 10.05818 | 968 ft | 113 kts | 48° |
| 2026-04-24 21:38 | 53.63055 | 10.06901 | 1116 ft | 114 kts | 46° |
| 2026-04-24 21:39 | 53.63552 | 10.07821 | 1297 ft | 94 kts | 12° |
| 2026-04-24 21:39 | 53.64086 | 10.07671 | 1332 ft | 76 kts | 323° |
| 2026-04-24 21:39 | 53.64199 | 10.06971 | 1365 ft | 79 kts | 249° |
| 2026-04-24 21:39 | 53.63629 | 10.06687 | 1367 ft | 105 kts | 171° |
| 2026-04-24 21:40 | 53.63173 | 10.07647 | 1276 ft | 110 kts | 84° |
| 2026-04-24 21:40 | 53.63333 | 10.08374 | 1255 ft | 95 kts | 34° |
| 2026-04-24 21:40 | 53.63861 | 10.08720 | 1241 ft | 80 kts | 359° |
| 2026-04-24 21:40 | 53.64427 | 10.08824 | 1197 ft | 78 kts | 348° |
| 2026-04-24 21:41 | 53.64974 | 10.08753 | 1174 ft | 78 kts | 341° |
| 2026-04-24 21:41 | 53.65433 | 10.08448 | 1211 ft | 69 kts | 320° |
| 2026-04-24 21:41 | 53.65673 | 10.07739 | 1214 ft | 78 kts | 284° |
| 2026-04-24 21:41 | 53.65646 | 10.06770 | 1030 ft | 86 kts | 271° |
| 2026-04-24 21:42 | 53.65547 | 10.05764 | 847 ft | 86 kts | 262° |
| 2026-04-24 21:42 | 53.65395 | 10.04945 | 772 ft | 66 kts | 257° |
| 2026-04-24 21:42 | 53.65263 | 10.04230 | 591 ft | 62 kts | 264° |
| 2026-04-24 21:42 | 53.65089 | 10.03453 | 529 ft | 75 kts | 251° |
| 2026-04-24 21:43 | 53.64822 | 10.02697 | 485 ft | 77 kts | 246° |
| 2026-04-24 21:43 | 53.64526 | 10.01927 | 392 ft | 78 kts | 246° |
| 2026-04-24 21:43 | 53.64204 | 10.01226 | 313 ft | 73 kts | 238° |
| 2026-04-24 21:43 | 53.63884 | 10.00587 | 169 ft | 73 kts | 239° |
| 2026-04-24 21:44 | 53.63567 | 9.99916 | 75 ft | 72 kts | 240° |
| 2026-04-24 21:44 | 53.63283 | 9.99331 | 42 ft | 51 kts | 229° |
| 2026-04-24 21:44 | 53.63142 | 9.99038 | 41 ft | 26 kts | 237° |
| 2026-04-24 21:44 | 53.63031 | 9.98810 | 40 ft | 35 kts | 232° |
| 2026-04-24 21:45 | 53.62858 | 9.98537 | 39 ft | 37 kts | 210° |
| 2026-04-24 21:45 | 53.62694 | 9.98509 | 42 ft | 0 kts | 68° |
| 2026-04-24 21:45 | 53.62698 | 9.98552 | 42 ft | 12 kts | 71° |
| 2026-04-24 21:45 | 53.62691 | 9.98678 | 42 ft | 7 kts | 128° |
| 2026-04-24 21:46 | 53.62695 | 9.98718 | 42 ft | 0 kts | 61° |